Anderson, Alabama
Current Conditions -  °F | °C
As of 6:53 PM on Tuesday 27 Jan 2015 (Local Time) from KMSL Reporting Station
Clear Clear  
Wind Chill: 43°   Ceiling: Unl
Heat Index: 46°   Visibility: 10mi
Dew Point: 30°   Wind: 6mph
Humidity: 54%   Direction: 350°N
Pressure: 30.16"   Gusts: NA
Location:  34.93°N, 87.27°W
Report Text: KMSL 280053Z AUTO 35005KT 10SM CLR 08/M01 A3016 RMK AO2 SLP214 T00781011
Loading
Personal Weather Stations






























Interactive Weather Map New forecast layout! Learn more

10-Day Weather Forecast

Advertisements
Track Severe Weather on mobile